Time;durP1;ratioP1;P1;durP2;ratioP2;P2;SDS_P1;SDS_P2;PMS_P1;PMS_P2;Temp;Humidity;BMP_temperature;BMP_pressure;BME280_temperature;BME280_humidity;BME280_pressure;Samples;Min_cycle;Max_cycle;Signal;HPM_P1;HPM_P2
2022/12/17 13:06:42;;;;;;;29.77;14.07;;;;;;;-4.13;100.00;100152.00;5173305;27;20197;-78
2022/12/17 13:09:24;;;;;;;28.90;14.83;;;;;;;-3.94;100.00;100150.47;5170001;27;20233;-78
2022/12/17 13:12:23;;;;;;;35.53;15.30;;;;;;;-3.84;100.00;100153.19;5170258;27;20224;-78
2022/12/17 13:14:56;;;;;;;32.00;16.30;;;;;;;-3.92;100.00;100153.94;5170748;27;20224;-78
2022/12/17 13:17:39;;;;;;;50.93;22.67;;;;;;;-3.85;100.00;100153.16;5108440;28;20205;-78
2022/12/17 13:20:32;;;;;;;33.67;17.30;;;;;;;-3.85;100.00;100145.41;5109439;28;20197;-78
2022/12/17 13:23:27;;;;;;;28.20;14.70;;;;;;;-4.03;100.00;100146.94;5109613;28;20230;-78
2022/12/17 13:26:15;;;;;;;30.40;15.07;;;;;;;-4.07;100.00;100157.22;5106271;28;20203;-78
2022/12/17 13:28:58;;;;;;;30.73;15.00;;;;;;;-4.22;100.00;100145.00;5111715;28;20187;-78
2022/12/17 13:31:28;;;;;;;31.23;14.87;;;;;;;-4.11;100.00;100146.00;5110993;28;20229;-79
2022/12/17 13:34:08;;;;;;;30.93;16.50;;;;;;;-3.89;100.00;100138.44;5071643;28;20193;-78
2022/12/17 13:36:44;;;;;;;33.47;15.03;;;;;;;-3.99;100.00;100139.19;5106737;28;20183;-78
2022/12/17 13:39:27;;;;;;;30.27;14.80;;;;;;;-3.87;100.00;100145.34;5107203;28;20225;-78
2022/12/17 13:41:56;;;;;;;30.27;15.67;;;;;;;-3.92;100.00;100146.19;5112045;28;20206;-78
2022/12/17 13:44:30;;;;;;;38.63;17.13;;;;;;;-4.00;100.00;100145.22;5109622;28;20184;-78
2022/12/17 13:46:59;;;;;;;32.10;15.73;;;;;;;-3.97;100.00;100142.66;5100310;28;20191;-78
2022/12/17 13:49:29;;;;;;;41.00;19.47;;;;;;;-3.97;100.00;100146.13;5109321;28;20199;-78
2022/12/17 13:52:03;;;;;;;66.63;37.37;;;;;;;-3.99;100.00;100150.41;5109447;28;20211;-77
2022/12/17 13:54:39;;;;;;;120.70;71.60;;;;;;;-3.94;100.00;100150.47;5107229;28;20212;-79
2022/12/17 13:57:14;;;;;;;44.63;22.13;;;;;;;-4.18;100.00;100149.34;5109921;28;20191;-78
2022/12/17 13:59:52;;;;;;;37.53;21.17;;;;;;;-4.11;100.00;100146.00;5150035;27;20222;-78
2022/12/17 14:02:27;;;;;;;41.53;20.67;;;;;;;-4.13;100.00;100150.28;5156342;27;20193;-79
2022/12/17 14:04:59;;;;;;;49.60;24.97;;;;;;;-4.21;100.00;100154.50;5152656;27;20186;-78
2022/12/17 14:07:39;;;;;;;32.50;15.97;;;;;;;-4.33;100.00;100156.94;5156595;27;20205;-78
2022/12/17 14:10:16;;;;;;;30.80;15.97;;;;;;;-4.30;100.00;100150.94;5152225;27;20209;-78
2022/12/17 14:12:50;;;;;;;30.47;14.37;;;;;;;-4.25;100.00;100149.25;5152454;27;20262;-78
2022/12/17 14:15:25;;;;;;;37.20;17.63;;;;;;;-4.15;100.00;100154.56;5155318;27;20261;-79
2022/12/17 14:17:57;;;;;;;26.50;13.60;;;;;;;-4.12;100.00;100158.91;5153243;27;20203;-78
2022/12/17 14:20:28;;;;;;;30.70;14.27;;;;;;;-4.28;100.00;100152.69;5084689;28;20199;-78
2022/12/17 14:23:01;;;;;;;29.97;15.23;;;;;;;-4.25;100.00;100149.25;5083875;28;20645;-78
2022/12/17 14:25:35;;;;;;;39.73;14.87;;;;;;;-4.19;100.00;100152.78;5083838;28;20666;-78
2022/12/17 14:28:07;;;;;;;31.73;14.37;;;;;;;-4.30;100.00;100151.81;5089071;28;20201;-78
2022/12/17 14:30:40;;;;;;;28.73;15.40;;;;;;;-4.33;100.00;100151.78;5037209;28;20196;-80
2022/12/17 14:33:30;;;;;;;40.03;20.97;;;;;;;-4.33;100.00;100156.94;5049584;28;20400;-78
2022/12/17 14:36:02;;;;;;;29.47;14.57;;;;;;;-4.20;100.00;100158.81;5038862;28;20201;-78
2022/12/17 14:38:31;;;;;;;34.93;14.97;;;;;;;-4.32;100.00;100162.13;5069705;28;20203;-77
2022/12/17 14:44:02;;;;;;;34.07;15.27;;;;;;;-4.26;100.00;100160.44;5070082;28;20265;-79
2022/12/17 14:46:35;;;;;;;38.37;14.37;;;;;;;-4.41;100.00;100164.59;5067252;28;20636;-78
2022/12/17 14:49:12;;;;;;;54.03;15.47;;;;;;;-4.52;100.00;100167.91;5071306;28;20192;-78
2022/12/17 14:51:42;;;;;;;42.00;13.73;;;;;;;-4.51;100.00;100177.41;5069635;28;20230;-78
2022/12/17 14:54:20;;;;;;;38.17;13.33;;;;;;;-4.58;100.00;100173.84;5062059;28;20273;-78
2022/12/17 14:56:49;;;;;;;34.40;13.50;;;;;;;-4.75;100.00;100173.63;5111050;28;20252;-78
2022/12/17 14:59:30;;;;;;;33.80;13.87;;;;;;;-4.84;100.00;100170.03;5108348;28;20187;-79
2022/12/17 15:02:11;;;;;;;32.57;13.27;;;;;;;-4.84;100.00;100182.94;5107901;28;20260;-78
2022/12/17 15:04:40;;;;;;;43.13;15.30;;;;;;;-4.68;100.00;100182.34;5112063;28;20199;-77
2022/12/17 15:07:14;;;;;;;38.53;16.63;;;;;;;-4.73;100.00;100184.88;5110868;28;20187;-78
2022/12/17 15:09:46;;;;;;;32.60;15.00;;;;;;;-4.70;100.00;100182.31;5112809;28;20259;-78
2022/12/17 15:12:17;;;;;;;44.87;14.87;;;;;;;-4.70;100.00;100176.28;5089157;28;20186;-77
2022/12/17 15:14:46;;;;;;;117.43;47.67;;;;;;;-4.80;100.00;100174.41;5106282;28;20187;-78
2022/12/17 15:17:20;;;;;;;46.77;20.57;;;;;;;-4.85;100.00;100174.34;5119139;28;20243;-78
2022/12/17 15:19:50;;;;;;;70.70;17.70;;;;;;;-4.81;100.00;100180.44;5135272;28;20186;-78
2022/12/17 15:22:24;;;;;;;52.87;16.63;;;;;;;-4.77;100.00;100179.63;5131294;28;20185;-78
2022/12/17 15:24:53;;;;;;;30.83;14.20;;;;;;;-4.81;100.00;100183.03;5150246;27;20214;-78
2022/12/17 15:27:22;;;;;;;62.37;16.63;;;;;;;-4.79;100.00;100182.19;5145248;27;20194;-78
2022/12/17 15:29:50;;;;;;;67.67;15.50;;;;;;;-4.88;100.00;100182.06;5151770;27;20243;-78
2022/12/17 15:32:30;;;;;;;78.73;16.07;;;;;;;-4.76;100.00;100186.53;5148162;27;20185;-77
2022/12/17 15:34:58;;;;;;;31.53;14.63;;;;;;;-4.93;100.00;100188.84;5153412;27;20193;-78
2022/12/17 15:37:28;;;;;;;85.70;17.47;;;;;;;-4.87;100.00;100188.94;5144994;27;20641;-78
2022/12/17 15:39:56;;;;;;;35.90;15.37;;;;;;;-4.89;100.00;100200.97;5145606;27;20223;-77
2022/12/17 15:45:11;;;;;;;56.90;15.40;;;;;;;-4.97;100.00;100216.38;5153174;27;20193;-78
2022/12/17 15:47:41;;;;;;;48.30;16.40;;;;;;;-4.88;100.00;100217.34;5152239;27;20201;-78
2022/12/17 15:50:10;;;;;;;63.60;15.23;;;;;;;-4.97;100.00;100208.63;5149012;27;20263;-78
2022/12/17 15:52:39;;;;;;;154.17;20.27;;;;;;;-5.18;100.00;100211.72;5123148;28;20661;-78
2022/12/17 15:55:08;;;;;;;82.97;17.43;;;;;;;-5.12;100.00;100210.94;5123257;28;20272;-78
2022/12/17 15:57:37;;;;;;;51.87;16.60;;;;;;;-5.14;100.00;100227.25;5123431;28;20198;-78
2022/12/17 16:00:06;;;;;;;40.87;15.53;;;;;;;-5.06;100.00;100223.97;5122420;28;20202;-78
2022/12/17 16:02:35;;;;;;;34.70;14.57;;;;;;;-4.97;100.00;100212.91;5120622;28;20239;-78
2022/12/17 16:05:08;;;;;;;58.87;14.30;;;;;;;-5.11;100.00;100222.16;5120471;28;20195;-78
2022/12/17 16:07:39;;;;;;;60.57;15.17;;;;;;;-5.21;100.00;100221.16;5121858;28;20225;-78
2022/12/17 16:10:07;;;;;;;69.87;19.27;;;;;;;-5.43;100.00;100226.78;5127910;27;20212;-78
2022/12/17 16:12:36;;;;;;;70.93;15.53;;;;;;;-5.32;100.00;100227.81;5147438;27;20194;-79
2022/12/17 16:15:10;;;;;;;55.40;15.23;;;;;;;-5.35;100.00;100231.22;5156556;27;20266;-78
2022/12/17 16:17:39;;;;;;;59.10;16.00;;;;;;;-5.30;100.00;100232.19;5154262;27;20200;-78
2022/12/17 16:20:11;;;;;;;33.60;14.57;;;;;;;-5.20;100.00;100234.09;5156318;27;20194;-78
2022/12/17 16:22:40;;;;;;;64.50;14.33;;;;;;;-5.29;100.00;100240.81;5151338;27;20249;-78
2022/12/17 16:25:09;;;;;;;32.87;13.23;;;;;;;-5.32;100.00;100236.44;5128047;27;20201;-78
2022/12/17 16:27:38;;;;;;;79.93;16.80;;;;;;;-5.42;100.00;100250.03;5135617;27;20194;-78
2022/12/17 16:30:09;;;;;;;33.17;14.80;;;;;;;-5.30;100.00;100250.25;5134376;27;20202;-78
2022/12/17 16:32:38;;;;;;;56.13;15.53;;;;;;;-5.26;100.00;100251.16;5134930;27;20221;-78
2022/12/17 16:35:09;;;;;;;50.33;15.70;;;;;;;-5.25;100.00;100258.06;5132061;27;20258;-78
2022/12/17 16:37:38;;;;;;;82.27;16.93;;;;;;;-5.27;100.00;100257.19;5135165;27;20191;-78
2022/12/17 16:40:08;;;;;;;107.13;17.10;;;;;;;-5.41;100.00;100256.91;5134568;27;20194;-78
2022/12/17 16:42:37;;;;;;;54.43;16.00;;;;;;;-5.44;100.00;100264.63;5129176;27;20182;-78
2022/12/17 16:45:07;;;;;;;63.53;15.47;;;;;;;-5.38;100.00;100259.59;5133416;27;20199;-78
2022/12/17 16:47:35;;;;;;;46.40;15.37;;;;;;;-5.29;100.00;100266.63;5133801;27;20258;-78
2022/12/17 16:50:04;;;;;;;53.10;15.87;;;;;;;-5.36;100.00;100260.47;5116054;27;20775;-78
2022/12/17 16:52:37;;;;;;;89.37;19.83;;;;;;;-5.65;100.00;100266.81;5134911;27;20198;-78
2022/12/17 16:55:06;;;;;;;52.53;17.80;;;;;;;-5.42;100.00;100272.38;5129825;27;20283;-78
2022/12/17 16:57:34;;;;;;;44.20;20.00;;;;;;;-5.44;100.00;100269.78;5131394;27;20202;-78
2022/12/17 17:00:03;;;;;;;56.37;19.37;;;;;;;-5.32;100.00;100274.28;5134815;27;20657;-78
2022/12/17 17:02:32;;;;;;;72.03;18.13;;;;;;;-5.28;100.00;100283.84;5133406;27;20194;-78
2022/12/17 17:05:01;;;;;;;49.17;18.17;;;;;;;-5.41;100.00;100280.16;5134429;27;20194;-78
2022/12/17 17:07:31;;;;;;;66.47;18.10;;;;;;;-5.52;100.00;100284.25;5130663;27;20202;-78
2022/12/17 17:10:01;;;;;;;105.70;19.03;;;;;;;-5.51;100.00;100276.53;5133929;27;20227;-78
2022/12/17 17:12:30;;;;;;;68.07;17.53;;;;;;;-5.56;100.00;100290.22;5129308;27;20266;-78
2022/12/17 17:15:05;;;;;;;90.83;21.97;;;;;;;-5.73;100.00;100301.91;5134171;27;20214;-78
2022/12/17 17:17:33;;;;;;;57.23;23.37;;;;;;;-5.58;100.00;100295.34;5130613;27;20199;-78
2022/12/17 17:20:22;;;;;;;38.23;17.13;;;;;;;-5.70;100.00;100295.09;5134694;27;20205;-78
2022/12/17 17:22:58;;;;;;;48.33;21.70;;;;;;;-5.57;100.00;100291.91;5110709;27;20187;-78
2022/12/17 17:25:31;;;;;;;37.03;16.10;;;;;;;-5.54;100.00;100285.94;5155129;27;20249;-78
2022/12/17 17:28:20;;;;;;;50.47;23.00;;;;;;;-5.47;100.00;100295.53;5155211;27;20289;-78
2022/12/17 17:30:51;;;;;;;40.73;18.10;;;;;;;-5.43;100.00;100299.91;5150596;27;20663;-77
2022/12/17 17:33:20;;;;;;;57.10;18.27;;;;;;;-5.60;100.00;100306.47;5103720;27;20193;-78
2022/12/17 17:35:48;;;;;;;43.83;18.67;;;;;;;-5.59;100.00;100303.94;5144884;27;20218;-78
2022/12/17 17:38:17;;;;;;;36.53;16.23;;;;;;;-5.61;100.00;100297.84;5154633;27;20198;-78
2022/12/17 17:40:56;;;;;;;56.57;16.00;;;;;;;-5.68;100.00;100303.75;5145589;27;20250;-78
2022/12/17 17:43:27;;;;;;;36.27;14.33;;;;;;;-5.74;100.00;100301.03;5154486;27;20250;-77
2022/12/17 17:46:05;;;;;;;35.43;14.90;;;;;;;-5.94;100.00;100299.81;5144748;27;20235;-77
2022/12/17 17:48:35;;;;;;;45.97;15.73;;;;;;;-6.00;100.00;100297.09;5147532;27;20219;-77
2022/12/17 17:51:06;;;;;;;37.57;15.57;;;;;;;-5.83;100.00;100301.72;5047085;28;20193;-77
2022/12/17 17:53:34;;;;;;;42.77;16.17;;;;;;;-5.80;100.00;100298.31;5047460;28;20201;-79
2022/12/17 17:56:13;;;;;;;39.13;15.77;;;;;;;-5.80;100.00;100294.03;5044924;28;20197;-79
2022/12/17 17:58:42;;;;;;;35.30;15.43;;;;;;;-5.73;100.00;100310.50;5046850;28;20196;-80
2022/12/17 18:01:15;;;;;;;43.83;16.67;;;;;;;-5.87;100.00;100309.38;5047450;28;20361;-79
2022/12/17 18:03:43;;;;;;;41.87;15.83;;;;;;;-5.64;100.00;100294.34;5045602;28;20196;-79
2022/12/17 18:06:13;;;;;;;37.77;16.63;;;;;;;-5.76;100.00;100302.72;5047572;28;20276;-79
2022/12/17 18:08:44;;;;;;;38.90;16.73;;;;;;;-5.69;100.00;100308.84;5023791;27;20194;-79
2022/12/17 18:11:17;;;;;;;44.53;17.97;;;;;;;-5.99;100.00;100312.59;5145893;27;20198;-79
2022/12/17 18:13:55;;;;;;;38.93;16.97;;;;;;;-6.07;100.00;100306.44;5149802;27;20223;-79
2022/12/17 18:16:29;;;;;;;53.70;16.57;;;;;;;-6.08;100.00;100308.13;5149249;27;20193;-78
2022/12/17 18:19:01;;;;;;;46.27;17.23;;;;;;;-6.01;100.00;100319.44;5155761;27;20215;-79
2022/12/17 18:21:31;;;;;;;54.80;16.97;;;;;;;-6.22;100.00;100321.56;5145681;27;20628;-78
2022/12/17 18:24:01;;;;;;;51.57;18.30;;;;;;;-6.19;100.00;100326.75;5143252;27;20229;-79
2022/12/17 18:26:41;;;;;;;48.63;19.87;;;;;;;-6.06;100.00;100318.47;5150270;27;20276;-79
2022/12/17 18:29:11;;;;;;;51.30;19.30;;;;;;;-5.99;100.00;100325.47;5115449;27;20201;-79
2022/12/17 18:31:41;;;;;;;45.90;19.00;;;;;;;-6.07;100.00;100324.47;5153656;27;20206;-78
2022/12/17 18:34:18;;;;;;;86.90;22.43;;;;;;;-6.30;100.00;100316.22;5150709;27;20269;-80
2022/12/17 18:36:48;;;;;;;71.23;20.60;;;;;;;-6.27;100.00;100324.03;5151244;27;20281;-79
2022/12/17 18:39:18;;;;;;;48.33;17.13;;;;;;;-6.33;100.00;100316.16;5150416;27;20194;-79
2022/12/17 18:44:38;;;;;;;44.67;18.23;;;;;;;-6.12;100.00;100329.50;5154583;27;20193;-79
2022/12/17 18:47:07;;;;;;;56.93;30.10;;;;;;;-6.06;100.00;100328.78;5149269;27;20261;-79
2022/12/17 18:49:36;;;;;;;55.37;19.97;;;;;;;-6.18;100.00;100325.91;5146762;27;20190;-78
2022/12/17 18:52:05;;;;;;;58.47;20.13;;;;;;;-6.11;100.00;100328.66;5142758;27;20221;-79
2022/12/17 18:54:41;;;;;;;65.37;18.27;;;;;;;-6.12;100.00;100332.09;5150563;27;20241;-79
2022/12/17 18:57:13;;;;;;;44.97;15.83;;;;;;;-6.08;100.00;100340.75;5146493;27;20181;-79
2022/12/17 18:59:41;;;;;;;38.10;16.30;;;;;;;-6.16;100.00;100335.44;5146707;27;20245;-79
2022/12/17 19:02:12;;;;;;;43.77;17.50;;;;;;;-6.34;100.00;100332.47;5146337;27;20200;-79
2022/12/17 19:04:43;;;;;;;56.67;16.17;;;;;;;-6.33;100.00;100328.19;5145403;27;20194;-79
2022/12/17 19:07:12;;;;;;;44.77;16.57;;;;;;;-6.36;100.00;100334.13;5148042;27;20197;-79
2022/12/17 19:09:41;;;;;;;65.37;18.83;;;;;;;-6.42;100.00;100331.41;5085471;28;20199;-79
2022/12/17 19:12:11;;;;;;;70.67;17.37;;;;;;;-6.41;100.00;100331.44;5085464;28;20225;-78
2022/12/17 19:14:39;;;;;;;48.13;16.63;;;;;;;-6.40;100.00;100325.44;5083642;28;20188;-79
2022/12/17 19:17:08;;;;;;;43.87;16.30;;;;;;;-6.46;100.00;100321.88;5078673;28;20188;-79
2022/12/17 19:19:36;;;;;;;45.03;17.07;;;;;;;-6.49;100.00;100321.78;5084436;28;20195;-79
2022/12/17 19:22:04;;;;;;;41.23;16.40;;;;;;;-6.47;100.00;100333.88;5084224;28;20207;-79
2022/12/17 19:24:33;;;;;;;43.07;16.90;;;;;;;-6.45;100.00;100332.22;5084864;28;20211;-79
2022/12/17 19:27:03;;;;;;;43.33;16.67;;;;;;;-6.38;100.00;100326.34;5090715;28;20618;-79
2022/12/17 19:29:35;;;;;;;53.33;18.90;;;;;;;-6.46;100.00;100321.88;5133022;28;20191;-80
2022/12/17 19:32:04;;;;;;;89.03;20.90;;;;;;;-6.56;100.00;100322.47;5127130;28;20186;-79
2022/12/17 19:34:34;;;;;;;58.03;18.37;;;;;;;-6.43;100.00;100322.81;5127417;28;20275;-79
2022/12/17 19:37:03;;;;;;;51.97;21.00;;;;;;;-6.42;100.00;100327.13;5044418;28;20255;-79
2022/12/17 19:39:33;;;;;;;44.47;18.77;;;;;;;-6.33;100.00;100336.78;5047146;28;20220;-79
2022/12/17 19:42:02;;;;;;;50.23;20.83;;;;;;;-6.46;100.00;100324.47;5041537;28;20190;-80
2022/12/17 19:44:30;;;;;;;72.37;23.07;;;;;;;-6.46;100.00;100333.06;5047886;28;20189;-79
2022/12/17 19:47:00;;;;;;;67.50;22.37;;;;;;;-6.48;100.00;100326.09;5049046;28;20193;-79
2022/12/17 19:49:29;;;;;;;69.90;20.50;;;;;;;-6.59;100.00;100323.28;5051170;28;20205;-79
2022/12/17 19:51:58;;;;;;;55.93;20.33;;;;;;;-6.60;100.00;100330.97;5048577;28;20193;-79
2022/12/17 19:54:29;;;;;;;54.33;19.87;;;;;;;-6.54;100.00;100324.28;5053304;28;20189;-79
2022/12/17 19:56:58;;;;;;;91.83;22.20;;;;;;;-6.52;100.00;100326.88;5045782;28;20275;-79
2022/12/17 19:59:28;;;;;;;43.63;19.13;;;;;;;-6.48;100.00;100329.53;5048122;28;20200;-79
2022/12/17 20:02:02;;;;;;;47.23;20.20;;;;;;;-6.50;100.00;100331.22;5049875;28;20748;-79
2022/12/17 20:04:40;;;;;;;56.20;19.30;;;;;;;-6.71;100.00;100325.56;5050952;28;20223;-79
2022/12/17 20:07:08;;;;;;;50.27;18.17;;;;;;;-6.77;100.00;100335.72;5050879;28;20278;-79
2022/12/17 20:09:40;;;;;;;39.83;17.63;;;;;;;-6.66;100.00;100342.00;5049480;28;20213;-79
2022/12/17 20:12:08;;;;;;;57.87;18.47;;;;;;;-6.81;100.00;100342.50;5044061;28;20201;-79
2022/12/17 20:14:37;;;;;;;42.73;17.73;;;;;;;-6.94;100.00;100346.50;5082763;27;20649;-78
2022/12/17 20:17:06;;;;;;;76.20;19.43;;;;;;;-6.97;100.00;100350.66;5125985;27;20252;-79
2022/12/17 20:19:35;;;;;;;56.10;18.50;;;;;;;-7.02;100.00;100347.13;5130712;27;20250;-79
2022/12/17 20:22:06;;;;;;;53.07;17.47;;;;;;;-6.96;100.00;100344.69;5131995;27;20530;-79
2022/12/17 20:24:36;;;;;;;55.93;17.90;;;;;;;-6.99;100.00;100352.34;5151192;27;20225;-79
2022/12/17 20:27:05;;;;;;;67.53;19.23;;;;;;;-7.21;100.00;100349.22;5147327;27;20664;-79
2022/12/17 20:29:34;;;;;;;98.70;20.37;;;;;;;-7.28;100.00;100356.72;5147822;27;20185;-79
2022/12/17 20:32:03;;;;;;;58.57;18.57;;;;;;;-7.30;100.00;100363.53;5150982;27;20197;-79
2022/12/17 20:34:32;;;;;;;62.97;18.60;;;;;;;-7.40;100.00;100357.28;5152067;27;20185;-78
2022/12/17 20:37:05;;;;;;;54.83;18.37;;;;;;;-7.38;100.00;100354.75;5150047;27;20239;-79
2022/12/17 20:39:34;;;;;;;43.73;18.07;;;;;;;-7.36;100.00;100363.38;5144584;27;20234;-79
2022/12/17 20:42:03;;;;;;;40.47;17.67;;;;;;;-7.41;100.00;100362.38;5149867;27;20189;-79
2022/12/17 20:44:32;;;;;;;41.90;17.00;;;;;;;-7.47;100.00;100367.34;5110498;27;20258;-79
2022/12/17 20:47:00;;;;;;;36.23;16.17;;;;;;;-7.61;100.00;100364.41;5148938;27;20727;-79
2022/12/17 20:49:36;;;;;;;35.47;16.73;;;;;;;-7.64;100.00;100378.03;5089119;28;20214;-79
2022/12/17 20:52:06;;;;;;;37.07;15.87;;;;;;;-7.53;100.00;100379.22;5085101;28;20225;-79
2022/12/17 20:54:34;;;;;;;40.13;16.50;;;;;;;-7.68;100.00;100372.78;5085045;28;20211;-79
2022/12/17 20:57:03;;;;;;;37.93;16.50;;;;;;;-7.72;100.00;100382.09;5091182;28;20223;-77
2022/12/17 20:59:31;;;;;;;36.90;16.40;;;;;;;-7.76;100.00;100379.38;5083651;28;20234;-78
2022/12/17 21:02:01;;;;;;;41.83;17.10;;;;;;;-7.89;100.00;100367.88;5091136;28;20351;-77
2022/12/17 21:04:32;;;;;;;40.00;17.23;;;;;;;-7.79;100.00;100375.03;5057290;28;20198;-77
2022/12/17 21:07:02;;;;;;;39.07;15.97;;;;;;;-7.79;100.00;100375.03;5101992;27;20243;-78
2022/12/17 21:09:33;;;;;;;43.57;17.53;;;;;;;-7.74;100.00;100378.59;5089486;28;20196;-79
2022/12/17 21:12:12;;;;;;;49.47;18.13;;;;;;;-7.87;100.00;100371.38;5086723;28;20249;-78
2022/12/17 21:14:43;;;;;;;47.77;17.60;;;;;;;-7.96;100.00;100379.69;5088450;28;20272;-79
2022/12/17 21:17:13;;;;;;;51.10;18.07;;;;;;;-7.96;100.00;100386.50;5048132;28;20258;-79
2022/12/17 21:19:42;;;;;;;45.67;17.00;;;;;;;-7.89;100.00;100388.44;4992706;28;20202;-78
2022/12/17 21:22:16;;;;;;;43.93;17.73;;;;;;;-7.78;100.00;100387.94;4989690;28;20206;-78
2022/12/17 21:24:49;;;;;;;42.17;18.33;;;;;;;-7.82;100.00;100382.63;4971149;28;20381;-77
2022/12/17 21:27:21;;;;;;;45.10;17.13;;;;;;;-7.70;100.00;100377.00;4988954;28;20276;-78
2022/12/17 21:29:52;;;;;;;44.73;18.40;;;;;;;-7.70;100.00;100382.16;5028335;28;20205;-77
2022/12/17 21:32:20;;;;;;;99.40;20.37;;;;;;;-7.78;100.00;100380.22;5026006;28;21089;-79
2022/12/17 21:34:49;;;;;;;47.40;17.83;;;;;;;-7.61;100.00;100387.56;5031488;28;20219;-78
2022/12/17 21:37:18;;;;;;;95.53;22.87;;;;;;;-7.71;100.00;100383.84;4949518;29;20244;-77
2022/12/17 21:39:50;;;;;;;87.50;19.53;;;;;;;-7.76;100.00;100390.53;4946182;29;20201;-77
2022/12/17 21:45:12;;;;;;;109.77;19.93;;;;;;;-7.86;100.00;100398.81;5042988;28;20193;-78
2022/12/17 21:47:40;;;;;;;47.07;17.00;;;;;;;-7.88;100.00;100403.03;5045774;28;20205;-78
2022/12/17 21:50:10;;;;;;;53.03;18.63;;;;;;;-7.91;100.00;100400.34;5043471;28;20190;-78
2022/12/17 21:52:39;;;;;;;120.10;22.47;;;;;;;-7.99;100.00;100412.13;5046142;28;20193;-78
2022/12/17 21:55:10;;;;;;;89.23;19.90;;;;;;;-7.93;100.00;100418.31;5062992;28;20191;-78
2022/12/17 21:57:54;;;;;;;62.27;19.27;;;;;;;-7.92;100.00;100416.59;5113870;28;20264;-78
2022/12/17 22:00:23;;;;;;;46.63;18.20;;;;;;;-7.87;100.00;100415.06;5106060;28;20199;-77
2022/12/17 22:02:52;;;;;;;54.27;18.87;;;;;;;-7.79;100.00;100414.47;5105631;28;20203;-79
2022/12/17 22:05:24;;;;;;;50.43;19.30;;;;;;;-7.82;100.00;100416.97;5027698;28;20198;-77
2022/12/17 22:07:55;;;;;;;58.23;18.13;;;;;;;-7.81;100.00;100417.84;5026923;28;20309;-78
2022/12/17 22:10:25;;;;;;;64.50;19.43;;;;;;;-7.84;100.00;100421.16;5026027;28;20253;-78
2022/12/17 22:16:00;;;;;;;60.53;19.03;;;;;;;-7.95;100.00;100416.53;5027695;28;20283;-78
2022/12/17 22:18:28;;;;;;;66.37;18.63;;;;;;;-7.93;100.00;100413.16;5025475;28;20202;-78
2022/12/17 22:20:58;;;;;;;78.17;19.87;;;;;;;-8.00;100.00;100420.69;5023920;28;20194;-77
2022/12/17 22:23:27;;;;;;;75.27;19.73;;;;;;;-8.07;100.00;100423.03;5032432;28;20278;-78
2022/12/17 22:25:57;;;;;;;54.90;20.57;;;;;;;-8.08;100.00;100421.31;5003960;28;20213;-78
2022/12/17 22:28:30;;;;;;;58.03;19.20;;;;;;;-8.05;100.00;100417.06;5004559;28;20198;-77
2022/12/17 22:33:51;;;;;;;56.10;18.60;;;;;;;-8.04;100.00;100427.41;5111170;28;20214;-77
2022/12/17 22:36:40;;;;;;;46.97;18.43;;;;;;;-7.97;100.00;100433.63;5110943;28;20307;-77
2022/12/17 22:39:29;;;;;;;60.23;19.97;;;;;;;-8.09;100.00;100442.69;5111047;28;20286;-77
2022/12/17 22:45:24;;;;;;;67.70;18.37;;;;;;;-8.31;100.00;100437.69;5114042;28;20456;-78
2022/12/17 22:47:53;;;;;;;53.70;19.23;;;;;;;-8.28;100.00;100431.78;5024594;28;20197;-77
2022/12/17 22:50:22;;;;;;;47.07;17.77;;;;;;;-8.20;100.00;100435.44;5040016;28;20199;-78
2022/12/17 22:53:02;;;;;;;64.43;18.20;;;;;;;-8.39;100.00;100431.47;5065586;28;20206;-78
2022/12/17 22:55:33;;;;;;;58.80;20.23;;;;;;;-8.53;100.00;100425.00;5066051;28;20659;-79
2022/12/17 22:58:05;;;;;;;66.77;18.87;;;;;;;-8.52;100.00;100425.06;5060286;28;20682;-80
2022/12/17 23:00:35;;;;;;;74.90;25.20;;;;;;;-8.53;100.00;100428.44;5063767;28;20200;-77
2022/12/17 23:03:05;;;;;;;74.93;21.77;;;;;;;-8.64;100.00;100428.91;5071792;28;20195;-77
2022/12/17 23:05:34;;;;;;;65.80;21.80;;;;;;;-8.59;100.00;100429.94;5091756;28;20186;-76
2022/12/17 23:08:03;;;;;;;64.73;20.57;;;;;;;-8.82;100.00;100432.59;5116995;28;20235;-77
2022/12/17 23:10:31;;;;;;;53.53;17.07;;;;;;;-8.77;100.00;100431.09;5127407;28;20649;-78
2022/12/17 23:13:02;;;;;;;75.23;20.10;;;;;;;-8.95;100.00;100435.59;5133234;28;20186;-78
2022/12/17 23:15:36;;;;;;;96.40;36.13;;;;;;;-8.77;100.00;100432.78;5129139;28;20190;-78
2022/12/17 23:18:06;;;;;;;65.57;21.80;;;;;;;-8.81;100.00;100426.66;5129083;28;20214;-78
2022/12/17 23:20:35;;;;;;;55.97;19.97;;;;;;;-8.80;100.00;100430.09;5131769;27;20213;-78
2022/12/17 23:23:04;;;;;;;51.87;19.67;;;;;;;-8.81;100.00;100426.66;5130626;27;20229;-78
2022/12/17 23:25:34;;;;;;;51.33;18.07;;;;;;;-8.76;100.00;100437.97;5154901;27;20194;-78
2022/12/17 23:28:04;;;;;;;50.83;18.97;;;;;;;-8.81;100.00;100426.66;5153498;27;20242;-78
2022/12/17 23:30:36;;;;;;;55.53;21.13;;;;;;;-8.83;100.00;100430.88;5151890;27;20197;-79
2022/12/17 23:33:06;;;;;;;53.43;21.17;;;;;;;-8.75;100.00;100428.56;5154061;27;20223;-79
2022/12/17 23:35:35;;;;;;;54.30;20.67;;;;;;;-9.00;100.00;100426.84;5155268;27;20235;-78
2022/12/17 23:38:04;;;;;;;53.73;20.67;;;;;;;-8.87;100.00;100438.44;5147458;27;20217;-77
2022/12/17 23:40:34;;;;;;;43.33;17.73;;;;;;;-8.88;100.00;100432.38;5150897;27;20285;-78
2022/12/17 23:43:02;;;;;;;47.83;18.50;;;;;;;-8.89;100.00;100427.22;5085560;28;20207;-77
2022/12/17 23:45:31;;;;;;;46.37;19.27;;;;;;;-8.89;100.00;100428.09;5089493;28;20308;-77
2022/12/17 23:48:02;;;;;;;55.50;19.67;;;;;;;-8.78;100.00;100431.91;5008161;28;20210;-78
2022/12/17 23:50:31;;;;;;;39.53;16.50;;;;;;;-8.90;100.00;100438.28;4969848;28;20203;-78
2022/12/17 23:53:00;;;;;;;36.60;16.10;;;;;;;-8.95;100.00;100430.47;4936014;29;20271;-77
2022/12/17 23:55:28;;;;;;;35.73;15.33;;;;;;;-9.08;100.00;100431.69;4932830;29;20193;-78
2022/12/17 23:57:59;;;;;;;31.50;13.63;;;;;;;-9.11;100.00;100435.88;4927928;29;20238;-77
